Time;durP1;ratioP1;P1;durP2;ratioP2;P2;SDS_P1;SDS_P2;PMS_P1;PMS_P2;Temp;Humidity;BMP_temperature;BMP_pressure;BME280_temperature;BME280_humidity;BME280_pressure;Samples;Min_cycle;Max_cycle;Signal;HPM_P1;HPM_P2
2022/08/16 00:03:19;;;;;;;6.40;4.95;;;25.60;58.40;;;;;;10512753;28;20395;-55
2022/08/16 00:08:20;;;;;;;5.63;5.13;;;25.60;58.30;;;;;;10530775;28;20535;-56
2022/08/16 00:13:21;;;;;;;5.43;4.93;;;25.60;58.30;;;;;;10530614;28;20036;-54
2022/08/16 00:18:22;;;;;;;5.22;4.72;;;25.60;58.40;;;;;;10512657;28;20029;-54
2022/08/16 00:23:22;;;;;;;5.45;4.95;;;25.60;58.40;;;;;;10530920;28;20081;-55
2022/08/16 00:28:23;;;;;;;6.05;5.18;;;25.60;58.40;;;;;;10494766;28;20036;-55
2022/08/16 00:33:24;;;;;;;5.80;4.80;;;25.60;58.50;;;;;;10502832;28;20488;-56
2022/08/16 00:38:25;;;;;;;4.88;4.47;;;25.60;58.40;;;;;;10529916;28;20051;-55
2022/08/16 00:43:34;;;;;;;5.70;5.15;;;25.60;58.40;;;;;;10529481;28;20024;-54
2022/08/16 00:48:36;;;;;;;5.18;4.68;;;25.60;58.40;;;;;;10532610;28;20063;-54
2022/08/16 00:53:37;;;;;;;5.47;4.97;;;25.60;59.10;;;;;;10519799;28;20050;-56
2022/08/16 00:58:43;;;;;;;6.88;5.47;;;25.60;58.50;;;;;;10538095;28;20028;-53
2022/08/16 01:03:49;;;;;;;5.82;4.90;;;25.60;58.50;;;;;;10520211;28;20024;-56
2022/08/16 01:08:55;;;;;;;6.35;5.75;;;25.50;58.40;;;;;;10520308;28;20499;-56
2022/08/16 01:14:13;;;;;;;5.75;5.18;;;25.50;58.40;;;;;;10537361;28;20020;-56
2022/08/16 01:19:30;;;;;;;5.63;5.13;;;25.50;58.50;;;;;;10521637;28;20482;-55
2022/08/16 01:24:37;;;;;;;7.95;5.55;;;25.50;58.50;;;;;;10519484;28;20123;-55
2022/08/16 01:30:03;;;;;;;5.60;5.10;;;25.50;58.50;;;;;;10508230;28;20058;-56
2022/08/16 01:35:18;;;;;;;8.32;6.10;;;25.50;58.50;;;;;;10522625;28;20085;-55
2022/08/16 01:40:25;;;;;;;5.50;5.00;;;25.50;58.50;;;;;;10519046;28;20040;-55
2022/08/16 01:45:26;;;;;;;5.00;4.50;;;25.50;59.20;;;;;;10536273;28;20027;-56
2022/08/16 01:50:27;;;;;;;5.93;4.95;;;25.50;58.60;;;;;;10535823;28;20110;-55
2022/08/16 01:55:29;;;;;;;5.25;4.85;;;25.50;58.60;;;;;;10535743;28;20028;-53
2022/08/16 02:00:29;;;;;;;5.78;5.20;;;25.50;58.60;;;;;;10516504;28;20115;-56
2022/08/16 02:05:30;;;;;;;5.40;4.90;;;25.50;58.70;;;;;;10535841;28;20039;-54
2022/08/16 02:10:33;;;;;;;6.10;5.40;;;25.50;58.70;;;;;;10517842;28;20047;-55
2022/08/16 02:15:36;;;;;;;5.07;4.68;;;25.50;58.70;;;;;;10534945;28;20039;-55
2022/08/16 02:20:37;;;;;;;5.65;5.13;;;25.50;58.70;;;;;;10517087;28;20027;-55
2022/08/16 02:25:39;;;;;;;5.93;5.13;;;25.50;58.70;;;;;;10516844;28;20040;-55
2022/08/16 02:30:39;;;;;;;5.63;5.13;;;25.50;58.70;;;;;;10497568;28;20364;-56
2022/08/16 02:35:40;;;;;;;5.22;4.72;;;25.40;58.70;;;;;;10507761;28;20032;-52
2022/08/16 02:40:41;;;;;;;5.85;5.25;;;25.40;58.70;;;;;;10516121;28;20165;-55
2022/08/16 02:45:42;;;;;;;6.25;5.70;;;25.40;58.70;;;;;;10534190;28;20308;-55
2022/08/16 02:50:43;;;;;;;5.57;5.00;;;25.40;58.70;;;;;;10533810;28;20110;-55
2022/08/16 02:55:44;;;;;;;5.60;5.10;;;25.40;58.70;;;;;;10533539;28;20032;-55
2022/08/16 03:00:45;;;;;;;5.15;4.65;;;25.40;58.70;;;;;;10533082;28;20024;-56
2022/08/16 03:05:46;;;;;;;5.45;4.95;;;25.40;58.80;;;;;;10514887;28;20081;-56
2022/08/16 03:10:48;;;;;;;5.55;5.05;;;25.40;58.80;;;;;;10533102;28;20499;-57
2022/08/16 03:15:49;;;;;;;5.72;5.22;;;25.40;58.80;;;;;;10514589;28;20040;-55
2022/08/16 03:20:49;;;;;;;5.90;5.40;;;25.40;58.80;;;;;;10514203;28;20479;-56
2022/08/16 03:25:50;;;;;;;6.10;5.22;;;25.40;58.80;;;;;;10532360;28;20028;-54
2022/08/16 03:30:52;;;;;;;6.28;5.68;;;25.40;58.80;;;;;;10494447;28;20125;-56
2022/08/16 03:35:58;;;;;;;6.30;5.30;;;25.40;58.70;;;;;;10525304;28;20036;-55
2022/08/16 03:40:59;;;;;;;5.85;5.10;;;25.40;58.70;;;;;;10531815;28;20040;-56
2022/08/16 03:46:01;;;;;;;5.63;4.72;;;25.40;58.70;;;;;;10513994;28;20057;-55
2022/08/16 03:51:06;;;;;;;6.38;5.78;;;25.40;58.80;;;;;;10531480;28;20031;-53
2022/08/16 03:56:08;;;;;;;6.28;5.68;;;25.40;58.80;;;;;;10531428;28;20467;-56
2022/08/16 04:01:10;;;;;;;5.30;4.78;;;25.30;58.70;;;;;;10531588;28;20070;-56
2022/08/16 04:06:10;;;;;;;5.43;4.93;;;25.40;58.70;;;;;;10530813;28;20031;-56
2022/08/16 04:11:11;;;;;;;6.03;5.53;;;25.40;58.70;;;;;;10531083;28;20374;-56
2022/08/16 04:16:12;;;;;;;5.68;5.07;;;25.30;58.70;;;;;;10529874;28;20044;-56
2022/08/16 04:21:13;;;;;;;5.65;5.15;;;25.30;58.70;;;;;;10526470;28;20553;-56
2022/08/16 04:26:14;;;;;;;6.03;5.35;;;25.30;58.70;;;;;;10530039;28;20034;-55
2022/08/16 04:31:14;;;;;;;6.65;6.05;;;25.30;58.70;;;;;;10472617;28;20102;-56
2022/08/16 04:36:16;;;;;;;6.18;5.57;;;25.30;58.70;;;;;;10528487;28;20036;-56
2022/08/16 04:41:17;;;;;;;5.68;5.15;;;25.30;58.70;;;;;;10531977;28;20040;-54
2022/08/16 04:46:17;;;;;;;6.30;5.70;;;25.40;58.80;;;;;;10531801;28;20028;-56
2022/08/16 04:51:19;;;;;;;5.90;5.30;;;25.30;58.80;;;;;;10513709;28;20093;-55
2022/08/16 04:56:19;;;;;;;5.93;5.25;;;25.30;58.80;;;;;;10513349;28;20539;-56
2022/08/16 05:01:20;;;;;;;6.15;5.60;;;25.30;58.80;;;;;;10530772;28;20066;-53
2022/08/16 05:06:21;;;;;;;5.55;5.05;;;25.30;58.80;;;;;;10531393;28;20042;-55
2022/08/16 05:11:23;;;;;;;6.10;5.45;;;25.30;58.80;;;;;;10512656;28;20031;-56
2022/08/16 05:16:29;;;;;;;7.45;5.55;;;25.30;58.80;;;;;;10512895;28;20024;-54
2022/08/16 05:21:30;;;;;;;6.53;5.63;;;25.30;58.80;;;;;;10531136;28;20039;-55
2022/08/16 05:26:32;;;;;;;5.97;5.47;;;25.30;58.90;;;;;;10510384;28;20043;-55
2022/08/16 05:31:32;;;;;;;6.45;5.85;;;25.30;58.90;;;;;;10488912;28;20028;-55
2022/08/16 05:36:33;;;;;;;7.82;5.70;;;25.30;58.90;;;;;;10534127;28;20035;-56
2022/08/16 05:41:36;;;;;;;7.38;5.80;;;25.20;58.80;;;;;;10494840;28;20111;-54
2022/08/16 05:46:36;;;;;;;5.75;5.20;;;25.30;58.90;;;;;;10495046;28;20028;-54
2022/08/16 05:51:37;;;;;;;6.00;5.45;;;25.30;58.90;;;;;;10496074;28;20024;-55
2022/08/16 05:56:40;;;;;;;6.82;5.80;;;25.20;58.80;;;;;;10494706;28;20111;-56
2022/08/16 06:01:43;;;;;;;7.60;6.65;;;25.30;58.90;;;;;;10495819;28;20062;-56
2022/08/16 06:06:45;;;;;;;8.20;5.95;;;25.30;58.80;;;;;;10494477;28;20064;-56
2022/08/16 06:11:46;;;;;;;6.25;5.65;;;25.30;58.80;;;;;;10495593;28;20025;-54
2022/08/16 06:16:46;;;;;;;6.55;5.95;;;25.30;58.90;;;;;;10495366;28;20033;-56
2022/08/16 06:21:47;;;;;;;6.75;5.55;;;25.30;58.90;;;;;;10495672;28;20395;-53
2022/08/16 06:26:48;;;;;;;6.88;6.18;;;25.20;58.80;;;;;;10490164;28;20118;-55
2022/08/16 06:31:49;;;;;;;6.22;5.63;;;25.30;59.00;;;;;;10452218;28;20499;-55
2022/08/16 06:36:50;;;;;;;6.97;6.32;;;25.30;58.90;;;;;;10494572;28;20025;-56
2022/08/16 06:41:50;;;;;;;6.88;6.05;;;25.30;59.00;;;;;;10529635;28;20048;-55
2022/08/16 06:46:51;;;;;;;6.53;5.95;;;25.30;58.90;;;;;;10517685;28;20036;-54
2022/08/16 06:51:52;;;;;;;6.28;5.72;;;25.20;58.80;;;;;;10535594;28;20561;-53
2022/08/16 06:56:52;;;;;;;6.95;6.35;;;25.20;58.80;;;;;;10535191;28;20086;-52
2022/08/16 07:01:53;;;;;;;7.32;6.63;;;25.20;58.80;;;;;;10535305;28;20110;-54
2022/08/16 07:06:54;;;;;;;7.88;6.47;;;25.30;58.90;;;;;;10535041;28;20367;-56
2022/08/16 07:11:54;;;;;;;7.80;6.50;;;25.30;58.80;;;;;;10516427;28;20032;-54
2022/08/16 07:16:56;;;;;;;7.18;6.55;;;25.30;58.90;;;;;;10535172;28;20042;-54
2022/08/16 07:21:57;;;;;;;7.38;6.70;;;25.30;58.90;;;;;;10516340;28;20024;-54
2022/08/16 07:26:58;;;;;;;6.90;6.30;;;25.30;58.80;;;;;;10527187;28;20021;-56
2022/08/16 07:32:00;;;;;;;7.78;6.85;;;25.30;58.80;;;;;;10459453;28;20127;-55
2022/08/16 07:37:07;;;;;;;7.43;6.72;;;25.30;58.80;;;;;;10516004;28;20028;-55
2022/08/16 07:42:07;;;;;;;7.88;7.18;;;25.30;58.80;;;;;;10515634;28;20040;-55
2022/08/16 07:47:08;;;;;;;8.02;7.32;;;25.30;58.70;;;;;;10533517;28;20438;-56
2022/08/16 07:52:09;;;;;;;9.35;8.43;;;25.30;58.90;;;;;;10533239;28;20082;-56
2022/08/16 07:57:10;;;;;;;8.60;7.50;;;25.30;58.80;;;;;;10532115;28;20025;-55
2022/08/16 08:02:12;;;;;;;8.13;7.43;;;25.30;58.80;;;;;;10532989;28;20060;-56
2022/08/16 08:07:13;;;;;;;7.97;7.28;;;25.30;58.80;;;;;;10514361;28;20036;-54
2022/08/16 08:12:14;;;;;;;7.07;6.38;;;25.40;58.90;;;;;;10532737;28;20522;-56
2022/08/16 08:17:16;;;;;;;8.23;7.43;;;25.40;59.00;;;;;;10514311;28;20024;-54
2022/08/16 08:22:16;;;;;;;8.07;7.35;;;25.40;59.00;;;;;;10532045;28;20059;-54
2022/08/16 08:27:17;;;;;;;7.45;6.75;;;25.40;59.00;;;;;;10505289;28;20124;-55
2022/08/16 08:32:20;;;;;;;7.50;6.55;;;25.40;59.00;;;;;;10494994;28;20780;-55
2022/08/16 08:37:21;;;;;;;7.95;7.15;;;25.40;59.00;;;;;;10531589;28;20433;-56
2022/08/16 08:42:22;;;;;;;8.27;7.47;;;25.40;59.10;;;;;;10531745;28;20051;-54
2022/08/16 08:47:22;;;;;;;7.18;6.47;;;25.40;59.10;;;;;;10531674;28;20830;-56
2022/08/16 08:52:23;;;;;;;7.85;7.05;;;25.40;59.10;;;;;;10513435;28;20419;-52
2022/08/16 08:57:24;;;;;;;8.00;7.30;;;25.40;59.10;;;;;;10513082;28;20031;-56
2022/08/16 09:02:25;;;;;;;8.65;7.85;;;25.40;59.10;;;;;;10513172;28;20035;-54
2022/08/16 09:07:26;;;;;;;7.45;6.75;;;25.50;59.10;;;;;;10530912;28;20036;-56
2022/08/16 09:12:26;;;;;;;7.45;6.20;;;25.50;59.20;;;;;;10520867;28;20028;-55
2022/08/16 09:17:27;;;;;;;6.57;5.95;;;25.40;59.10;;;;;;10521296;28;20043;-57
2022/08/16 09:22:28;;;;;;;7.88;6.82;;;25.50;59.20;;;;;;10539312;28;20028;-56
2022/08/16 09:27:29;;;;;;;6.78;6.18;;;25.50;59.20;;;;;;10529639;28;20039;-56
2022/08/16 09:32:30;;;;;;;7.90;7.10;;;25.50;59.20;;;;;;10503056;28;20146;-56
2022/08/16 09:37:32;;;;;;;7.35;6.65;;;25.50;59.20;;;;;;10538447;28;20032;-56
2022/08/16 09:42:32;;;;;;;8.00;7.28;;;25.50;59.20;;;;;;10538313;28;20048;-56
2022/08/16 09:47:39;;;;;;;7.43;6.72;;;25.50;59.20;;;;;;10520230;28;20077;-56
2022/08/16 09:52:40;;;;;;;7.32;6.60;;;25.60;59.20;;;;;;10520352;28;20092;-55
2022/08/16 09:57:42;;;;;;;7.82;7.13;;;25.60;59.20;;;;;;10537663;28;20055;-57
2022/08/16 10:02:43;;;;;;;7.43;6.43;;;25.60;59.20;;;;;;10537706;28;20024;-56
2022/08/16 10:07:46;;;;;;;8.02;7.32;;;25.60;59.20;;;;;;10537534;28;20028;-54
2022/08/16 10:18:09;;;;;;;6.90;6.30;;;25.60;59.10;;;;;;10521495;28;20064;-55
2022/08/16 10:23:14;;;;;;;7.25;6.55;;;25.60;59.10;;;;;;10535802;28;20479;-55
2022/08/16 10:28:15;;;;;;;7.47;6.75;;;25.60;59.10;;;;;;10502646;28;20028;-56
2022/08/16 10:33:16;;;;;;;7.82;7.03;;;25.60;59.10;;;;;;10505836;28;20035;-54
2022/08/16 10:38:17;;;;;;;6.80;6.20;;;25.60;59.10;;;;;;10517689;28;20501;-56
2022/08/16 10:43:18;;;;;;;6.93;6.25;;;25.70;59.20;;;;;;10517623;28;20028;-56
2022/08/16 10:48:19;;;;;;;7.85;7.15;;;25.70;59.10;;;;;;10535314;28;20366;-56
2022/08/16 10:53:19;;;;;;;7.50;6.80;;;25.70;59.10;;;;;;10517193;28;20032;-54
2022/08/16 10:58:20;;;;;;;6.88;6.18;;;25.70;59.00;;;;;;10534985;28;20024;-53
2022/08/16 11:03:21;;;;;;;6.75;6.15;;;25.80;59.10;;;;;;10516792;28;20020;-55
2022/08/16 11:08:22;;;;;;;6.93;6.32;;;25.80;59.10;;;;;;10534811;28;20024;-57
2022/08/16 11:13:25;;;;;;;6.97;6.32;;;25.80;59.10;;;;;;10516329;28;20406;-56
2022/08/16 11:18:30;;;;;;;7.22;6.63;;;25.80;59.00;;;;;;10499853;28;20086;-56
2022/08/16 11:23:31;;;;;;;6.88;6.22;;;25.80;59.00;;;;;;10534165;28;20039;-55
2022/08/16 11:28:34;;;;;;;6.25;5.68;;;25.80;59.10;;;;;;10515100;28;20029;-54
2022/08/16 11:33:35;;;;;;;6.57;5.88;;;25.80;59.10;;;;;;10488540;28;20023;-53
2022/08/16 11:38:36;;;;;;;6.93;6.22;;;25.80;59.10;;;;;;10498159;28;20052;-56
2022/08/16 11:43:40;;;;;;;8.18;7.47;;;25.80;59.20;;;;;;10533768;28;20119;-56
2022/08/16 11:48:44;;;;;;;7.00;6.40;;;25.80;59.10;;;;;;10515548;28;20032;-56
2022/08/16 11:53:45;;;;;;;7.00;6.40;;;25.80;59.10;;;;;;10533102;28;20608;-56
2022/08/16 11:58:45;;;;;;;7.35;6.60;;;25.90;59.20;;;;;;10532770;28;20024;-56
2022/08/16 12:03:46;;;;;;;7.53;6.82;;;25.90;59.30;;;;;;10532759;28;20027;-54
2022/08/16 12:08:47;;;;;;;8.00;7.20;;;25.90;59.20;;;;;;10532317;28;20536;-55
2022/08/16 12:13:48;;;;;;;7.50;6.80;;;25.90;59.20;;;;;;10514206;28;20486;-56
2022/08/16 12:18:49;;;;;;;7.18;6.53;;;25.90;59.10;;;;;;10532345;28;20035;-56
2022/08/16 12:23:50;;;;;;;6.90;6.30;;;25.90;59.10;;;;;;10531936;28;20028;-55
2022/08/16 12:28:52;;;;;;;6.72;6.20;;;25.90;59.10;;;;;;10510257;28;20646;-56
2022/08/16 12:33:53;;;;;;;7.25;6.55;;;25.90;59.20;;;;;;10508078;28;20039;-56
2022/08/16 12:38:54;;;;;;;7.07;6.47;;;25.90;59.20;;;;;;10530926;28;20044;-54
2022/08/16 12:43:54;;;;;;;7.15;6.55;;;25.80;59.10;;;;;;10530966;28;20244;-54
2022/08/16 12:48:58;;;;;;;9.38;7.13;;;25.80;59.30;;;;;;10496683;28;20032;-55
2022/08/16 12:54:03;;;;;;;7.32;6.63;;;25.80;59.30;;;;;;10512628;28;20509;-56
2022/08/16 12:59:10;;;;;;;7.65;6.90;;;25.80;59.30;;;;;;10531705;28;20028;-57
2022/08/16 13:04:11;;;;;;;7.40;6.70;;;25.80;59.40;;;;;;10531431;28;20032;-55
2022/08/16 13:09:31;;;;;;;7.10;6.40;;;25.80;59.30;;;;;;10530823;28;20103;-56
2022/08/16 13:14:39;;;;;;;7.03;6.43;;;25.80;59.30;;;;;;10531316;28;20039;-57
2022/08/16 13:19:41;;;;;;;7.22;6.63;;;25.90;59.40;;;;;;10513515;28;20080;-55
2022/08/16 13:24:42;;;;;;;6.93;6.32;;;25.90;59.20;;;;;;10531054;28;20115;-55
2022/08/16 13:29:42;;;;;;;7.20;6.50;;;25.90;59.30;;;;;;10501583;28;20601;-55
2022/08/16 13:34:43;;;;;;;6.95;6.35;;;25.90;59.40;;;;;;10513933;28;20033;-55
2022/08/16 13:39:44;;;;;;;7.65;6.95;;;25.90;59.30;;;;;;10530082;28;20048;-56
2022/08/16 13:44:46;;;;;;;6.57;5.97;;;25.90;59.20;;;;;;10530441;28;20024;-56
2022/08/16 13:49:47;;;;;;;6.95;6.25;;;25.90;59.10;;;;;;10512505;28;20472;-56
2022/08/16 13:54:48;;;;;;;6.90;6.30;;;25.90;59.20;;;;;;10512164;28;20125;-55
2022/08/16 13:59:48;;;;;;;6.90;6.20;;;25.90;59.10;;;;;;10537487;28;20028;-54
2022/08/16 14:04:49;;;;;;;8.15;7.38;;;25.90;59.10;;;;;;10537957;28;20118;-55
2022/08/16 14:09:50;;;;;;;5.90;5.40;;;25.90;59.70;;;;;;10486372;28;20024;-56
2022/08/16 14:14:51;;;;;;;6.88;6.05;;;25.90;59.20;;;;;;10536940;28;20020;-56
2022/08/16 14:19:52;;;;;;;7.43;6.82;;;25.90;59.20;;;;;;10537007;28;20105;-56
2022/08/16 14:24:55;;;;;;;6.82;6.22;;;25.90;59.20;;;;;;10518842;28;20360;-55
2022/08/16 14:29:57;;;;;;;6.30;5.70;;;25.90;59.10;;;;;;10488128;28;20081;-56
2022/08/16 14:34:59;;;;;;;7.65;6.93;;;25.90;59.10;;;;;;10503314;28;20036;-55
2022/08/16 14:40:00;;;;;;;7.53;6.82;;;25.90;59.10;;;;;;10536052;28;20044;-53
2022/08/16 14:45:01;;;;;;;6.75;6.15;;;25.90;59.20;;;;;;10518019;28;20491;-56
2022/08/16 14:50:04;;;;;;;6.72;6.15;;;25.90;59.80;;;;;;10536025;28;20024;-56
2022/08/16 14:55:05;;;;;;;6.50;6.00;;;25.90;59.10;;;;;;10535629;28;20421;-56
2022/08/16 15:00:10;;;;;;;7.13;6.53;;;25.80;59.10;;;;;;10517084;28;20051;-56
2022/08/16 15:05:11;;;;;;;6.60;6.00;;;25.90;59.20;;;;;;10517301;28;20518;-55
2022/08/16 15:10:12;;;;;;;6.80;6.20;;;25.90;59.20;;;;;;10534988;28;20111;-55
2022/08/16 15:15:19;;;;;;;6.78;6.18;;;25.90;59.10;;;;;;10534768;28;20028;-56
2022/08/16 15:20:20;;;;;;;6.72;6.03;;;25.90;59.20;;;;;;10517115;28;20031;-53
2022/08/16 15:25:32;;;;;;;6.10;5.60;;;25.90;59.10;;;;;;10500033;28;20046;-53
2022/08/16 15:30:40;;;;;;;6.65;6.05;;;25.90;59.10;;;;;;10498317;28;20031;-55
2022/08/16 15:35:42;;;;;;;6.83;6.23;;;25.90;59.10;;;;;;10507626;28;20035;-56
2022/08/16 15:40:43;;;;;;;6.47;5.88;;;25.90;59.10;;;;;;10533402;28;20075;-55
2022/08/16 15:51:07;;;;;;;7.05;5.90;;;25.90;59.10;;;;;;10533253;28;20747;-56
2022/08/16 15:56:07;;;;;;;8.10;7.40;;;25.90;59.10;;;;;;10498051;28;20052;-55
2022/08/16 16:01:08;;;;;;;7.60;6.90;;;25.80;59.10;;;;;;10533062;28;20028;-56
2022/08/16 16:06:09;;;;;;;6.93;6.32;;;25.90;59.20;;;;;;10533294;28;20363;-56
2022/08/16 16:11:10;;;;;;;6.90;6.30;;;25.90;59.20;;;;;;10532802;28;20073;-55
2022/08/16 16:16:11;;;;;;;7.32;6.68;;;25.90;59.20;;;;;;10514427;28;20060;-55
2022/08/16 16:21:12;;;;;;;7.88;7.18;;;25.90;59.10;;;;;;10513375;28;20030;-55
2022/08/16 16:26:15;;;;;;;7.45;6.85;;;25.90;59.10;;;;;;10532086;28;20024;-54
2022/08/16 16:31:17;;;;;;;7.68;7.07;;;25.90;59.10;;;;;;10490211;28;20025;-55
2022/08/16 16:36:20;;;;;;;7.00;6.40;;;25.90;59.10;;;;;;10529206;28;20027;-56
2022/08/16 16:41:24;;;;;;;7.13;6.53;;;25.90;59.10;;;;;;10513804;28;20048;-59
2022/08/16 16:46:32;;;;;;;7.30;6.70;;;25.90;59.10;;;;;;10513461;28;20543;-56
2022/08/16 16:51:36;;;;;;;6.67;6.07;;;25.90;59.00;;;;;;10514539;28;20031;-57
2022/08/16 16:56:36;;;;;;;6.95;6.35;;;25.90;59.10;;;;;;10531539;28;20032;-57
2022/08/16 17:01:43;;;;;;;7.28;6.57;;;25.90;59.00;;;;;;10531162;28;20515;-53
2022/08/16 17:06:44;;;;;;;6.95;6.35;;;25.90;59.00;;;;;;10531464;28;20024;-55
2022/08/16 17:11:45;;;;;;;7.75;7.05;;;25.90;59.00;;;;;;10496052;28;20032;-55
2022/08/16 17:16:46;;;;;;;7.47;6.75;;;25.90;59.00;;;;;;10513059;28;20169;-56
2022/08/16 17:21:47;;;;;;;7.45;6.85;;;25.90;59.00;;;;;;10531248;28;20016;-56
2022/08/16 17:26:48;;;;;;;6.82;6.22;;;25.90;59.30;;;;;;10526275;28;20484;-56
2022/08/16 17:31:48;;;;;;;6.90;6.30;;;25.90;58.90;;;;;;10494522;28;20169;-54
2022/08/16 17:36:49;;;;;;;7.68;7.07;;;25.90;58.90;;;;;;10520637;28;20051;-56
2022/08/16 17:41:50;;;;;;;6.72;6.13;;;25.90;58.90;;;;;;10538664;28;20059;-55
2022/08/16 17:46:51;;;;;;;7.15;6.55;;;25.90;58.90;;;;;;10538297;28;20024;-55
2022/08/16 17:51:51;;;;;;;7.30;6.60;;;25.90;58.90;;;;;;10519548;28;20150;-53
2022/08/16 17:56:52;;;;;;;7.88;7.28;;;25.90;58.90;;;;;;10538063;28;20028;-54
2022/08/16 18:01:54;;;;;;;7.07;6.38;;;25.90;58.90;;;;;;10536366;28;20111;-56
2022/08/16 18:06:56;;;;;;;7.47;6.88;;;25.90;58.90;;;;;;10537533;28;20059;-56
2022/08/16 18:11:57;;;;;;;7.45;6.85;;;25.90;58.90;;;;;;10537316;28;20526;-56
2022/08/16 18:16:58;;;;;;;7.10;6.40;;;25.90;58.90;;;;;;10536993;28;20059;-55
2022/08/16 18:27:19;;;;;;;6.72;6.13;;;25.90;58.90;;;;;;10527956;28;20033;-55
2022/08/16 18:32:20;;;;;;;7.80;6.80;;;25.90;58.90;;;;;;10499631;28;20040;-54
2022/08/16 18:37:24;;;;;;;7.22;6.53;;;25.90;58.90;;;;;;10536421;28;20043;-56
2022/08/16 18:42:25;;;;;;;7.15;6.55;;;25.90;58.90;;;;;;10535335;28;20051;-56
2022/08/16 18:47:26;;;;;;;6.63;6.05;;;25.90;58.90;;;;;;10536195;28;20442;-57
2022/08/16 18:52:26;;;;;;;6.90;6.30;;;25.90;58.90;;;;;;10536128;28;20410;-56
2022/08/16 18:57:27;;;;;;;7.38;6.68;;;25.90;58.90;;;;;;10516916;28;20050;-56
2022/08/16 19:02:28;;;;;;;7.15;6.55;;;25.90;58.80;;;;;;10535257;28;20545;-54
2022/08/16 19:07:28;;;;;;;7.22;6.63;;;25.90;58.80;;;;;;10535207;28;20032;-57
2022/08/16 19:12:30;;;;;;;7.82;7.07;;;25.90;58.90;;;;;;10535018;28;20077;-56
2022/08/16 19:17:31;;;;;;;8.30;7.60;;;25.90;58.90;;;;;;10516557;28;20032;-56
2022/08/16 19:22:32;;;;;;;6.82;6.22;;;25.90;58.90;;;;;;10516298;28;20024;-55
2022/08/16 19:27:33;;;;;;;6.95;6.35;;;25.90;59.00;;;;;;10523568;28;20067;-54
2022/08/16 19:32:36;;;;;;;6.72;6.18;;;25.90;59.00;;;;;;10500407;28;20337;-56
2022/08/16 19:37:37;;;;;;;6.60;6.00;;;25.90;59.00;;;;;;10514616;28;20099;-56
2022/08/16 19:42:40;;;;;;;6.72;6.15;;;25.90;59.00;;;;;;10531713;28;20039;-54
2022/08/16 19:47:41;;;;;;;7.22;6.63;;;25.90;59.00;;;;;;10531744;28;20032;-52
2022/08/16 19:52:42;;;;;;;6.93;6.22;;;25.90;59.10;;;;;;10529936;28;20664;-55
2022/08/16 19:57:47;;;;;;;7.13;6.57;;;25.90;59.10;;;;;;10531448;28;20056;-56
2022/08/16 20:02:52;;;;;;;6.90;6.38;;;25.90;59.10;;;;;;10531077;28;20021;-56
2022/08/16 20:07:56;;;;;;;7.03;6.43;;;25.90;59.10;;;;;;10531668;28;20042;-55
2022/08/16 20:13:01;;;;;;;7.85;7.15;;;25.90;59.10;;;;;;10530759;28;20433;-54
2022/08/16 20:18:02;;;;;;;7.97;7.18;;;25.90;59.10;;;;;;10531078;28;20097;-55
2022/08/16 20:23:05;;;;;;;7.05;6.45;;;25.90;59.10;;;;;;10512522;28;20058;-55
2022/08/16 20:28:06;;;;;;;8.20;7.43;;;25.90;59.10;;;;;;10515060;28;20487;-55
2022/08/16 20:33:12;;;;;;;7.60;6.93;;;25.90;59.20;;;;;;10482199;28;20028;-55
2022/08/16 20:38:13;;;;;;;8.15;7.45;;;25.90;59.20;;;;;;10512213;28;20048;-56
2022/08/16 20:43:15;;;;;;;7.72;7.10;;;25.90;59.30;;;;;;10511798;28;20028;-55
2022/08/16 20:48:15;;;;;;;8.30;7.60;;;25.90;59.30;;;;;;10530574;28;20034;-55
2022/08/16 20:53:16;;;;;;;8.32;7.60;;;25.90;59.30;;;;;;10511494;28;20025;-54
2022/08/16 20:58:17;;;;;;;8.45;7.70;;;25.90;59.40;;;;;;10511400;28;20032;-55
2022/08/16 21:03:18;;;;;;;8.20;7.32;;;25.90;59.40;;;;;;10529204;28;20036;-56
2022/08/16 21:08:18;;;;;;;8.65;7.85;;;25.90;59.40;;;;;;10518792;28;20486;-54
2022/08/16 21:13:19;;;;;;;8.32;7.63;;;25.90;59.40;;;;;;10537614;28;20107;-56
2022/08/16 21:18:20;;;;;;;8.55;7.85;;;25.90;59.40;;;;;;10519656;28;20119;-56
2022/08/16 21:23:21;;;;;;;8.52;7.82;;;25.90;59.50;;;;;;10519697;28;20016;-55
2022/08/16 21:28:22;;;;;;;8.32;7.63;;;25.90;59.60;;;;;;10501639;28;20033;-56
2022/08/16 21:33:23;;;;;;;8.85;8.15;;;25.90;59.60;;;;;;10509088;28;20487;-52
2022/08/16 21:38:24;;;;;;;9.02;8.23;;;25.90;59.60;;;;;;10518823;28;20658;-56
2022/08/16 21:43:27;;;;;;;9.35;8.55;;;25.90;59.60;;;;;;10537220;28;20348;-56
2022/08/16 21:48:29;;;;;;;9.02;7.80;;;25.90;59.60;;;;;;10536857;28;20059;-54
2022/08/16 21:53:30;;;;;;;9.02;8.13;;;25.90;59.70;;;;;;10518645;28;20103;-56
2022/08/16 21:58:31;;;;;;;9.60;8.80;;;25.90;59.80;;;;;;10536007;28;20028;-54
2022/08/16 22:03:32;;;;;;;9.32;8.52;;;25.90;59.80;;;;;;10535824;28;20020;-56
2022/08/16 22:08:34;;;;;;;9.23;8.43;;;25.90;60.40;;;;;;10535558;28;20036;-55
2022/08/16 22:13:35;;;;;;;8.90;8.18;;;25.90;59.80;;;;;;10535452;28;20024;-55
2022/08/16 22:18:35;;;;;;;9.98;9.18;;;25.90;59.80;;;;;;10516642;28;20036;-55
2022/08/16 22:23:36;;;;;;;9.55;8.75;;;25.80;59.80;;;;;;10517318;28;20032;-54
2022/08/16 22:28:37;;;;;;;9.45;8.57;;;25.80;59.80;;;;;;10497148;28;20032;-54
2022/08/16 22:33:39;;;;;;;9.00;8.20;;;25.80;59.80;;;;;;10508549;28;20046;-52
2022/08/16 22:38:39;;;;;;;9.95;9.07;;;25.80;59.80;;;;;;10534310;28;20460;-48
2022/08/16 22:43:40;;;;;;;9.80;9.00;;;25.80;59.80;;;;;;10534202;28;20114;-49
2022/08/16 22:48:41;;;;;;;9.90;9.00;;;25.80;59.90;;;;;;10534759;28;20647;-51
2022/08/16 22:53:42;;;;;;;10.10;9.25;;;25.90;59.90;;;;;;10534786;28;20028;-51
2022/08/16 22:58:45;;;;;;;8.50;7.82;;;25.80;59.90;;;;;;10533523;28;20814;-52
2022/08/16 23:03:46;;;;;;;10.00;9.20;;;25.80;59.80;;;;;;10533869;28;20070;-52
2022/08/16 23:08:47;;;;;;;10.07;9.18;;;25.80;59.80;;;;;;10533065;28;20020;-49
2022/08/16 23:13:55;;;;;;;10.77;9.90;;;25.80;59.90;;;;;;10533005;28;20122;-52
2022/08/16 23:18:56;;;;;;;10.05;9.25;;;25.80;59.90;;;;;;10514903;28;20035;-50
2022/08/16 23:23:57;;;;;;;9.55;8.75;;;25.80;59.90;;;;;;10533039;28;20024;-51
2022/08/16 23:28:57;;;;;;;9.70;8.85;;;25.80;59.80;;;;;;10510045;28;20115;-51
2022/08/16 23:33:59;;;;;;;10.02;9.23;;;25.80;59.90;;;;;;10508770;28;20199;-51
2022/08/16 23:38:59;;;;;;;10.70;9.70;;;25.80;59.90;;;;;;10513536;28;20043;-51
2022/08/16 23:44:00;;;;;;;10.18;9.30;;;25.80;59.90;;;;;;10532146;28;20118;-49
2022/08/16 23:49:01;;;;;;;10.95;9.95;;;25.80;59.90;;;;;;10531701;28;20027;-49
2022/08/16 23:54:02;;;;;;;9.75;8.85;;;25.80;59.90;;;;;;10531485;28;20024;-51
2022/08/16 23:59:03;;;;;;;9.13;8.43;;;25.80;59.90;;;;;;10513070;28;20020;-49
